Time;durP1;ratioP1;P1;durP2;ratioP2;P2;SDS_P1;SDS_P2;PMS_P1;PMS_P2;Temp;Humidity;BMP_temperature;BMP_pressure;BME280_temperature;BME280_humidity;BME280_pressure;Samples;Min_cycle;Max_cycle;Signal;HPM_P1;HPM_P2
2022/03/13 00:02:01;;;;;;;10.80;5.03;;;;;;;;;;5084121;28;20027;-68
2022/03/13 00:04:27;;;;;;;12.20;4.83;;;;;;;;;;5086426;28;20054;-68
2022/03/13 00:06:52;;;;;;;9.33;4.70;;;;;;;;;;5086256;28;20434;-68
2022/03/13 00:09:21;;;;;;;9.23;4.37;;;;;;;;;;5085435;28;20024;-68
2022/03/13 00:11:46;;;;;;;11.10;4.87;;;;;;;;;;5084845;28;20289;-68
2022/03/13 00:14:13;;;;;;;10.50;5.00;;;;;;;;;;5085761;28;20580;-68
2022/03/13 00:16:38;;;;;;;11.83;5.00;;;;;;;;;;5083892;28;20031;-68
2022/03/13 00:19:06;;;;;;;15.50;4.77;;;;;;;;;;5085039;28;20024;-68
2022/03/13 00:21:34;;;;;;;11.93;4.90;;;;;;;;;;5084966;28;20016;-68
2022/03/13 00:23:59;;;;;;;12.37;4.90;;;;;;;;;;5084761;28;20576;-68
2022/03/13 00:26:24;;;;;;;12.17;4.30;;;;;;;;;;5085858;28;20031;-67
2022/03/13 00:28:50;;;;;;;9.20;4.30;;;;;;;;;;5091731;28;20032;-68
2022/03/13 00:31:15;;;;;;;9.77;4.30;;;;;;;;;;5088352;28;20100;-68
2022/03/13 00:33:40;;;;;;;11.03;4.60;;;;;;;;;;5089096;28;21292;-67
2022/03/13 00:36:06;;;;;;;10.07;3.97;;;;;;;;;;5096205;28;20034;-68
2022/03/13 00:38:31;;;;;;;9.03;4.20;;;;;;;;;;5082435;28;20077;-68
2022/03/13 00:40:57;;;;;;;11.10;5.10;;;;;;;;;;5086484;28;20035;-68
2022/03/13 00:43:25;;;;;;;10.23;4.30;;;;;;;;;;5085826;28;20103;-68
2022/03/13 00:45:50;;;;;;;10.83;4.60;;;;;;;;;;5087490;28;20039;-67
2022/03/13 00:48:16;;;;;;;11.53;4.83;;;;;;;;;;5093343;28;20484;-67
2022/03/13 00:50:42;;;;;;;9.53;4.57;;;;;;;;;;5088120;28;20526;-67
2022/03/13 00:53:07;;;;;;;11.13;4.57;;;;;;;;;;5087704;28;20032;-67
2022/03/13 00:55:33;;;;;;;8.47;4.20;;;;;;;;;;5087398;28;20063;-67
2022/03/13 00:57:58;;;;;;;10.37;5.07;;;;;;;;;;5086652;28;20515;-67
2022/03/13 01:00:24;;;;;;;10.40;4.83;;;;;;;;;;5086479;28;20039;-67
2022/03/13 01:02:49;;;;;;;13.00;5.37;;;;;;;;;;5086132;28;20044;-67
2022/03/13 01:05:24;;;;;;;14.60;4.90;;;;;;;;;;5087217;28;20039;-67
2022/03/13 01:07:50;;;;;;;11.17;4.90;;;;;;;;;;5083530;28;20024;-67
2022/03/13 01:10:16;;;;;;;9.80;4.80;;;;;;;;;;5081070;28;20629;-67
2022/03/13 01:12:41;;;;;;;9.70;4.50;;;;;;;;;;5086278;28;20028;-67
2022/03/13 01:15:07;;;;;;;11.87;4.77;;;;;;;;;;5085394;28;20123;-67
2022/03/13 01:17:33;;;;;;;11.97;5.10;;;;;;;;;;5085430;28;20601;-67
2022/03/13 01:19:58;;;;;;;12.67;5.17;;;;;;;;;;5084632;28;20028;-67
2022/03/13 01:22:23;;;;;;;11.33;4.50;;;;;;;;;;5085972;28;20016;-67
2022/03/13 01:24:51;;;;;;;10.80;4.47;;;;;;;;;;5085716;28;20097;-67
2022/03/13 01:27:17;;;;;;;11.00;4.77;;;;;;;;;;5085746;28;20063;-67
2022/03/13 01:29:42;;;;;;;9.70;4.50;;;;;;;;;;5085759;28;20656;-67
2022/03/13 01:32:09;;;;;;;11.67;5.03;;;;;;;;;;5085839;28;20380;-67
2022/03/13 01:34:35;;;;;;;10.73;4.73;;;;;;;;;;5085360;28;20448;-67
2022/03/13 01:37:05;;;;;;;10.60;4.40;;;;;;;;;;5085234;28;20122;-67
2022/03/13 01:39:30;;;;;;;11.73;4.67;;;;;;;;;;5085335;28;20024;-67
2022/03/13 01:41:56;;;;;;;9.33;4.37;;;;;;;;;;5086477;28;20087;-67
2022/03/13 01:44:21;;;;;;;12.13;4.40;;;;;;;;;;5085741;28;20024;-67
2022/03/13 01:46:47;;;;;;;10.87;5.53;;;;;;;;;;5085969;28;20051;-67
2022/03/13 01:49:13;;;;;;;9.83;4.70;;;;;;;;;;5085859;28;20020;-67
2022/03/13 01:51:38;;;;;;;9.83;4.70;;;;;;;;;;5086413;28;20371;-67
2022/03/13 01:54:11;;;;;;;11.10;5.63;;;;;;;;;;5085703;28;20028;-67
2022/03/13 01:56:37;;;;;;;9.80;4.77;;;;;;;;;;5086315;28;20070;-67
2022/03/13 01:59:02;;;;;;;11.97;4.70;;;;;;;;;;5085953;28;20796;-67
2022/03/13 02:01:28;;;;;;;13.33;4.90;;;;;;;;;;5086511;28;20102;-67
2022/03/13 02:03:55;;;;;;;15.83;4.80;;;;;;;;;;5081003;28;20040;-68
2022/03/13 02:06:21;;;;;;;11.03;5.13;;;;;;;;;;5084510;28;20016;-68
2022/03/13 02:08:47;;;;;;;11.30;4.90;;;;;;;;;;5084072;28;20036;-68
2022/03/13 02:11:17;;;;;;;14.97;5.23;;;;;;;;;;5083882;28;20085;-68
2022/03/13 02:13:43;;;;;;;14.07;5.23;;;;;;;;;;5084009;28;20024;-68
2022/03/13 02:16:09;;;;;;;13.87;5.37;;;;;;;;;;5084017;28;20110;-68
2022/03/13 02:18:35;;;;;;;13.10;5.00;;;;;;;;;;5084434;28;20103;-68
2022/03/13 02:21:00;;;;;;;9.63;4.67;;;;;;;;;;5083882;28;20028;-68
2022/03/13 02:23:26;;;;;;;11.60;5.07;;;;;;;;;;5084000;28;20012;-68
2022/03/13 02:25:58;;;;;;;9.67;4.57;;;;;;;;;;5084271;28;20423;-68
2022/03/13 02:28:27;;;;;;;9.70;4.90;;;;;;;;;;5083714;28;20064;-68
2022/03/13 02:30:58;;;;;;;13.23;5.20;;;;;;;;;;5064536;28;20024;-68
2022/03/13 02:33:24;;;;;;;9.77;5.10;;;;;;;;;;5077167;28;20032;-68
2022/03/13 02:35:54;;;;;;;11.80;5.13;;;;;;;;;;5083992;28;20051;-68
2022/03/13 02:38:19;;;;;;;9.83;4.80;;;;;;;;;;5084261;28;20107;-68
2022/03/13 02:40:45;;;;;;;17.93;5.87;;;;;;;;;;5084049;28;20146;-68
2022/03/13 02:43:10;;;;;;;10.83;5.30;;;;;;;;;;5083844;28;20035;-68
2022/03/13 02:45:37;;;;;;;12.80;4.87;;;;;;;;;;5083839;28;20127;-68
2022/03/13 02:48:04;;;;;;;11.03;5.00;;;;;;;;;;5084727;28;20031;-68
2022/03/13 02:50:29;;;;;;;9.67;4.43;;;;;;;;;;5083372;28;20086;-68
2022/03/13 02:52:55;;;;;;;11.37;4.70;;;;;;;;;;5083403;28;20535;-68
2022/03/13 02:55:20;;;;;;;10.20;4.57;;;;;;;;;;5083350;28;20024;-68
2022/03/13 02:57:45;;;;;;;13.20;5.30;;;;;;;;;;5084300;28;20055;-68
2022/03/13 03:00:11;;;;;;;11.67;5.10;;;;;;;;;;5084526;28;20042;-68
2022/03/13 03:02:36;;;;;;;11.80;5.60;;;;;;;;;;5083586;28;20046;-68
2022/03/13 03:05:03;;;;;;;11.80;5.20;;;;;;;;;;5084275;28;20024;-68
2022/03/13 03:07:29;;;;;;;10.77;5.13;;;;;;;;;;5084284;28;20069;-68
2022/03/13 03:09:54;;;;;;;10.27;4.90;;;;;;;;;;5085175;28;20576;-68
2022/03/13 03:12:19;;;;;;;10.67;4.83;;;;;;;;;;5084821;28;20035;-68
2022/03/13 03:14:45;;;;;;;13.87;6.07;;;;;;;;;;5084661;28;20072;-68
2022/03/13 03:17:10;;;;;;;10.87;4.50;;;;;;;;;;5087576;28;20085;-68
2022/03/13 03:19:35;;;;;;;11.53;4.90;;;;;;;;;;5087645;28;20020;-68
2022/03/13 03:22:01;;;;;;;12.17;5.40;;;;;;;;;;5087369;28;20020;-68
2022/03/13 03:24:26;;;;;;;11.23;4.93;;;;;;;;;;5087414;28;20034;-68
2022/03/13 03:26:53;;;;;;;12.43;5.00;;;;;;;;;;5087769;28;20488;-68
2022/03/13 03:29:19;;;;;;;15.30;5.27;;;;;;;;;;5087146;28;20625;-68
2022/03/13 03:31:45;;;;;;;10.93;5.10;;;;;;;;;;5086907;28;20050;-70
2022/03/13 03:34:12;;;;;;;11.57;5.20;;;;;;;;;;5087294;28;20028;-69
2022/03/13 03:36:39;;;;;;;13.47;5.00;;;;;;;;;;5088337;28;20107;-68
2022/03/13 03:39:05;;;;;;;11.70;5.50;;;;;;;;;;5087834;28;20032;-69
2022/03/13 03:41:31;;;;;;;12.33;5.97;;;;;;;;;;5087166;28;20035;-68
2022/03/13 03:43:57;;;;;;;11.13;4.67;;;;;;;;;;5087004;28;20458;-69
2022/03/13 03:46:24;;;;;;;13.27;5.13;;;;;;;;;;5087229;28;20039;-68
2022/03/13 03:48:49;;;;;;;13.50;5.70;;;;;;;;;;5086637;28;20036;-68
2022/03/13 03:51:14;;;;;;;12.33;5.93;;;;;;;;;;5087398;28;20019;-68
2022/03/13 03:53:39;;;;;;;13.33;5.00;;;;;;;;;;5086648;28;20055;-68
2022/03/13 03:56:05;;;;;;;13.10;6.03;;;;;;;;;;5086776;28;20534;-68
2022/03/13 03:58:30;;;;;;;10.37;4.90;;;;;;;;;;5086176;28;20560;-69
2022/03/13 04:00:55;;;;;;;12.63;5.13;;;;;;;;;;5086418;28;20020;-69
2022/03/13 04:03:21;;;;;;;10.43;4.80;;;;;;;;;;5086588;28;20083;-69
2022/03/13 04:05:47;;;;;;;13.97;5.13;;;;;;;;;;5086556;28;20531;-68
2022/03/13 04:08:12;;;;;;;14.47;5.17;;;;;;;;;;5086322;28;20514;-69
2022/03/13 04:10:37;;;;;;;11.00;5.50;;;;;;;;;;5085942;28;20043;-69
2022/03/13 04:13:03;;;;;;;11.40;5.27;;;;;;;;;;5086591;28;20036;-69
2022/03/13 04:15:28;;;;;;;12.93;5.63;;;;;;;;;;5086182;28;20027;-69
2022/03/13 04:17:55;;;;;;;12.40;4.83;;;;;;;;;;5086523;28;20024;-69
2022/03/13 04:20:21;;;;;;;10.87;5.57;;;;;;;;;;5086199;28;20024;-69
2022/03/13 04:22:46;;;;;;;12.43;5.10;;;;;;;;;;5086521;28;20032;-69
2022/03/13 04:25:11;;;;;;;12.77;5.43;;;;;;;;;;5085774;28;20036;-68
2022/03/13 04:27:36;;;;;;;13.47;5.33;;;;;;;;;;5084713;28;20023;-69
2022/03/13 04:30:02;;;;;;;10.43;5.30;;;;;;;;;;5085692;28;20021;-68
2022/03/13 04:32:27;;;;;;;11.40;5.03;;;;;;;;;;5086018;28;20024;-68
2022/03/13 04:34:52;;;;;;;12.37;4.70;;;;;;;;;;5085692;28;20035;-68
2022/03/13 04:37:18;;;;;;;12.90;5.10;;;;;;;;;;5084693;28;20028;-69
2022/03/13 04:39:44;;;;;;;12.57;5.07;;;;;;;;;;5085804;28;20034;-68
2022/03/13 04:42:09;;;;;;;11.17;5.40;;;;;;;;;;5085576;28;20055;-69
2022/03/13 04:44:34;;;;;;;11.73;5.10;;;;;;;;;;5085158;28;20027;-68
2022/03/13 04:47:00;;;;;;;10.40;5.20;;;;;;;;;;5085164;28;20024;-68
2022/03/13 04:49:26;;;;;;;11.60;5.60;;;;;;;;;;5085099;28;20031;-68
2022/03/13 04:51:51;;;;;;;12.30;5.70;;;;;;;;;;5085123;28;20024;-69
2022/03/13 04:54:17;;;;;;;13.93;6.53;;;;;;;;;;5085099;28;20085;-69
2022/03/13 04:56:42;;;;;;;11.17;4.90;;;;;;;;;;5085058;28;20475;-69
2022/03/13 04:59:07;;;;;;;14.97;5.57;;;;;;;;;;5084930;28;20095;-69
2022/03/13 05:01:33;;;;;;;11.33;5.60;;;;;;;;;;5085029;28;20035;-69
2022/03/13 05:03:58;;;;;;;11.73;5.67;;;;;;;;;;5084723;28;20697;-69
2022/03/13 05:06:26;;;;;;;17.30;5.77;;;;;;;;;;5085310;28;20028;-68
2022/03/13 05:08:51;;;;;;;13.47;5.33;;;;;;;;;;5085449;28;20028;-68
2022/03/13 05:11:17;;;;;;;11.53;5.43;;;;;;;;;;5085464;28;20085;-68
2022/03/13 05:13:42;;;;;;;12.77;5.53;;;;;;;;;;5085963;28;20021;-68
2022/03/13 05:16:08;;;;;;;10.13;5.50;;;;;;;;;;5085098;28;20374;-68
2022/03/13 05:18:34;;;;;;;13.20;5.30;;;;;;;;;;5084111;28;20020;-68
2022/03/13 05:20:59;;;;;;;10.93;5.40;;;;;;;;;;5084321;28;20677;-68
2022/03/13 05:23:24;;;;;;;12.27;5.73;;;;;;;;;;5084895;28;20032;-68
2022/03/13 05:25:50;;;;;;;19.03;6.80;;;;;;;;;;5083819;28;20035;-69
2022/03/13 05:28:15;;;;;;;13.50;5.90;;;;;;;;;;5084757;28;20257;-68
2022/03/13 05:30:42;;;;;;;12.50;5.60;;;;;;;;;;5084373;28;20022;-68
2022/03/13 05:33:07;;;;;;;14.53;6.10;;;;;;;;;;5085345;28;20020;-68
2022/03/13 05:35:33;;;;;;;11.70;5.63;;;;;;;;;;5084429;28;20122;-68
2022/03/13 05:37:58;;;;;;;11.37;5.07;;;;;;;;;;5084151;28;20050;-68
2022/03/13 05:40:24;;;;;;;14.83;6.37;;;;;;;;;;5085109;28;20070;-68
2022/03/13 05:42:52;;;;;;;12.43;6.00;;;;;;;;;;5084997;28;20123;-68
2022/03/13 05:45:20;;;;;;;15.67;7.13;;;;;;;;;;5084579;28;20512;-68
2022/03/13 05:47:46;;;;;;;14.47;6.70;;;;;;;;;;5084412;28;20055;-68
2022/03/13 05:50:12;;;;;;;11.80;5.20;;;;;;;;;;5084149;28;20168;-67
2022/03/13 05:52:37;;;;;;;14.07;5.83;;;;;;;;;;5082543;28;20111;-68
2022/03/13 05:55:03;;;;;;;14.77;5.67;;;;;;;;;;5083974;28;20027;-68
2022/03/13 05:57:28;;;;;;;17.20;6.10;;;;;;;;;;5084407;28;20553;-68
2022/03/13 05:59:53;;;;;;;12.27;5.00;;;;;;;;;;5083957;28;20051;-68
2022/03/13 06:02:20;;;;;;;14.17;6.17;;;;;;;;;;5084541;28;20031;-68
2022/03/13 06:04:45;;;;;;;13.27;6.10;;;;;;;;;;5084985;28;20039;-68
2022/03/13 06:07:11;;;;;;;13.37;5.70;;;;;;;;;;5084389;28;20157;-68
2022/03/13 06:09:36;;;;;;;11.23;5.00;;;;;;;;;;5083678;28;20042;-67
2022/03/13 06:12:01;;;;;;;15.90;5.13;;;;;;;;;;5084981;28;20055;-67
2022/03/13 06:14:27;;;;;;;11.97;5.63;;;;;;;;;;5084002;28;20028;-67
2022/03/13 06:16:52;;;;;;;13.37;6.60;;;;;;;;;;5083845;28;20032;-68
2022/03/13 06:19:17;;;;;;;14.30;6.10;;;;;;;;;;5084886;28;20091;-68
2022/03/13 06:21:43;;;;;;;12.60;6.10;;;;;;;;;;5084543;28;20056;-68
2022/03/13 06:24:08;;;;;;;20.57;6.57;;;;;;;;;;5084460;28;20081;-68
2022/03/13 06:26:34;;;;;;;10.13;4.77;;;;;;;;;;5083686;28;20024;-68
2022/03/13 06:28:59;;;;;;;10.10;5.07;;;;;;;;;;5084134;28;20024;-68
2022/03/13 06:31:25;;;;;;;14.13;6.13;;;;;;;;;;5084276;28;20050;-69
2022/03/13 06:33:50;;;;;;;13.03;5.17;;;;;;;;;;5083599;28;20103;-67
2022/03/13 06:36:15;;;;;;;13.93;6.10;;;;;;;;;;5083376;28;20031;-67
2022/03/13 06:38:41;;;;;;;13.53;6.17;;;;;;;;;;5084141;28;20016;-67
2022/03/13 06:41:06;;;;;;;11.43;5.13;;;;;;;;;;5084093;28;20091;-67
2022/03/13 06:43:33;;;;;;;12.00;4.97;;;;;;;;;;5084120;28;20081;-67
2022/03/13 06:45:58;;;;;;;13.20;4.77;;;;;;;;;;5084612;28;20028;-67
2022/03/13 06:48:26;;;;;;;10.53;5.20;;;;;;;;;;5084457;28;20030;-67
2022/03/13 06:50:51;;;;;;;13.47;5.33;;;;;;;;;;5086820;28;20024;-67
2022/03/13 06:53:17;;;;;;;11.73;5.30;;;;;;;;;;5088802;28;20028;-67
2022/03/13 06:55:42;;;;;;;11.50;4.90;;;;;;;;;;5088135;28;20019;-67
2022/03/13 06:58:07;;;;;;;14.43;5.83;;;;;;;;;;5088634;28;20020;-67
2022/03/13 07:00:33;;;;;;;12.97;5.93;;;;;;;;;;5088753;28;20031;-68
2022/03/13 07:02:59;;;;;;;10.80;4.80;;;;;;;;;;5088387;28;20068;-67
2022/03/13 07:05:25;;;;;;;13.63;5.97;;;;;;;;;;5088049;28;20111;-68
2022/03/13 07:07:52;;;;;;;12.40;5.67;;;;;;;;;;5088389;28;20038;-67
2022/03/13 07:10:18;;;;;;;17.83;7.33;;;;;;;;;;5088340;28;20077;-68
2022/03/13 07:12:46;;;;;;;12.57;5.77;;;;;;;;;;5087676;28;20492;-68
2022/03/13 07:15:13;;;;;;;12.83;5.30;;;;;;;;;;5088293;28;20070;-68
2022/03/13 07:17:41;;;;;;;10.57;5.10;;;;;;;;;;5088744;28;20480;-68
2022/03/13 07:20:06;;;;;;;12.17;5.93;;;;;;;;;;5088535;28;20032;-68
2022/03/13 07:22:32;;;;;;;10.60;5.33;;;;;;;;;;5088611;28;20438;-68
2022/03/13 07:24:57;;;;;;;11.00;5.03;;;;;;;;;;5103526;28;20028;-68
2022/03/13 07:27:22;;;;;;;11.43;5.43;;;;;;;;;;5107388;28;20492;-68
2022/03/13 07:29:49;;;;;;;13.63;5.43;;;;;;;;;;5088777;28;20040;-68
2022/03/13 07:32:15;;;;;;;12.10;5.87;;;;;;;;;;5084615;28;20024;-68
2022/03/13 07:34:40;;;;;;;15.93;6.07;;;;;;;;;;5085924;28;20103;-68
2022/03/13 07:37:06;;;;;;;12.43;6.00;;;;;;;;;;5086769;28;20460;-68
2022/03/13 07:39:31;;;;;;;11.23;4.90;;;;;;;;;;5093490;28;20058;-68
2022/03/13 07:41:57;;;;;;;10.37;4.97;;;;;;;;;;5102846;28;20477;-69
2022/03/13 07:44:22;;;;;;;12.97;5.47;;;;;;;;;;5093642;28;20034;-68
2022/03/13 07:46:47;;;;;;;11.47;5.43;;;;;;;;;;5085259;28;20044;-68
2022/03/13 07:49:13;;;;;;;10.43;5.63;;;;;;;;;;5090715;28;20028;-68
2022/03/13 07:51:38;;;;;;;12.47;5.37;;;;;;;;;;5098368;28;20053;-68
2022/03/13 07:54:03;;;;;;;12.73;5.53;;;;;;;;;;5086560;28;20047;-68
2022/03/13 07:56:29;;;;;;;11.57;4.93;;;;;;;;;;5086935;28;20020;-68
2022/03/13 07:58:54;;;;;;;9.53;4.80;;;;;;;;;;5086599;28;20028;-68
2022/03/13 08:01:20;;;;;;;8.53;4.37;;;;;;;;;;5083977;28;20062;-68
2022/03/13 08:03:45;;;;;;;11.70;5.63;;;;;;;;;;5082867;28;20054;-68
2022/03/13 08:06:11;;;;;;;9.33;5.17;;;;;;;;;;5082569;28;20020;-68
2022/03/13 08:08:36;;;;;;;13.13;5.63;;;;;;;;;;5081796;28;20024;-68
2022/03/13 08:11:02;;;;;;;9.73;4.93;;;;;;;;;;5084359;28;20035;-68
2022/03/13 08:13:27;;;;;;;15.03;5.40;;;;;;;;;;5083101;28;20028;-68
2022/03/13 08:15:53;;;;;;;10.40;5.13;;;;;;;;;;5083568;28;20400;-69
2022/03/13 08:18:18;;;;;;;10.60;5.10;;;;;;;;;;5064835;28;20031;-68
2022/03/13 08:20:43;;;;;;;15.77;5.80;;;;;;;;;;5080919;28;20115;-68
2022/03/13 08:23:09;;;;;;;11.00;5.00;;;;;;;;;;5078903;28;20032;-68
2022/03/13 08:25:34;;;;;;;10.93;5.20;;;;;;;;;;5082289;28;20044;-69
2022/03/13 08:28:00;;;;;;;11.23;5.67;;;;;;;;;;5083872;28;20024;-69
2022/03/13 08:30:25;;;;;;;10.20;4.87;;;;;;;;;;5083741;28;20035;-68
2022/03/13 08:32:50;;;;;;;35.83;6.03;;;;;;;;;;5070322;28;20040;-69
2022/03/13 08:35:17;;;;;;;10.10;5.10;;;;;;;;;;5083447;28;20093;-69
2022/03/13 08:37:42;;;;;;;11.97;5.30;;;;;;;;;;5083622;28;20607;-68
2022/03/13 08:40:09;;;;;;;11.93;5.07;;;;;;;;;;5083812;28;20028;-68
2022/03/13 08:42:34;;;;;;;13.37;5.10;;;;;;;;;;5081706;28;20036;-68
2022/03/13 08:44:59;;;;;;;33.13;14.27;;;;;;;;;;5081678;28;20050;-68
2022/03/13 08:47:25;;;;;;;57.10;24.23;;;;;;;;;;5082285;28;20058;-68
2022/03/13 08:49:50;;;;;;;11.83;4.93;;;;;;;;;;5082637;28;20491;-68
2022/03/13 08:52:16;;;;;;;10.33;5.13;;;;;;;;;;5073034;28;20527;-68
2022/03/13 08:54:41;;;;;;;10.63;4.57;;;;;;;;;;5080947;28;20032;-68
2022/03/13 08:57:07;;;;;;;10.60;4.70;;;;;;;;;;5082318;28;20517;-68
2022/03/13 08:59:37;;;;;;;9.37;4.87;;;;;;;;;;5081132;28;20450;-68
2022/03/13 09:02:02;;;;;;;9.20;4.13;;;;;;;;;;5079703;28;20024;-68
2022/03/13 09:04:29;;;;;;;9.23;4.33;;;;;;;;;;5080946;28;20048;-68
2022/03/13 09:06:55;;;;;;;10.97;5.07;;;;;;;;;;5081043;28;20032;-68
2022/03/13 09:09:20;;;;;;;8.53;4.43;;;;;;;;;;5082658;28;20483;-68
2022/03/13 09:11:47;;;;;;;12.73;4.30;;;;;;;;;;5083287;28;20045;-68
2022/03/13 09:14:12;;;;;;;11.90;5.40;;;;;;;;;;5082019;28;20059;-68
2022/03/13 09:16:43;;;;;;;11.33;5.43;;;;;;;;;;5083514;28;20442;-68
2022/03/13 09:19:08;;;;;;;11.97;5.63;;;;;;;;;;5083494;28;20024;-68
2022/03/13 09:21:34;;;;;;;9.10;4.53;;;;;;;;;;5082837;28;20131;-68
2022/03/13 09:23:59;;;;;;;8.23;4.40;;;;;;;;;;5082980;28;20035;-68
2022/03/13 09:26:26;;;;;;;9.13;4.50;;;;;;;;;;5082733;28;20032;-68
2022/03/13 09:28:51;;;;;;;9.37;5.10;;;;;;;;;;5083183;28;20486;-68
2022/03/13 09:31:16;;;;;;;11.47;5.03;;;;;;;;;;5082778;28;20103;-68
2022/03/13 09:33:42;;;;;;;12.90;5.00;;;;;;;;;;5082354;28;20028;-68
2022/03/13 09:36:07;;;;;;;10.60;5.33;;;;;;;;;;5082768;28;20058;-68
2022/03/13 09:38:33;;;;;;;9.97;5.03;;;;;;;;;;5083368;28;20082;-68
2022/03/13 09:40:58;;;;;;;11.83;5.67;;;;;;;;;;5083365;28;20034;-68
2022/03/13 09:43:23;;;;;;;11.73;5.00;;;;;;;;;;5081916;28;20484;-68
2022/03/13 09:45:49;;;;;;;11.10;5.00;;;;;;;;;;5082445;28;20472;-68
2022/03/13 09:48:17;;;;;;;11.17;5.10;;;;;;;;;;5070396;28;20027;-68
2022/03/13 09:50:42;;;;;;;10.73;5.13;;;;;;;;;;5080307;28;20028;-68
2022/03/13 09:53:08;;;;;;;10.47;5.00;;;;;;;;;;5082048;28;20118;-68
2022/03/13 09:55:33;;;;;;;11.37;5.23;;;;;;;;;;5081577;28;20035;-68
2022/03/13 09:57:59;;;;;;;9.63;4.50;;;;;;;;;;5083141;28;20032;-68
2022/03/13 10:00:25;;;;;;;9.40;4.90;;;;;;;;;;5081483;28;20039;-68
2022/03/13 10:02:54;;;;;;;11.23;4.93;;;;;;;;;;5081849;28;20142;-68
2022/03/13 10:05:20;;;;;;;12.57;4.47;;;;;;;;;;5079789;28;20035;-68
2022/03/13 10:07:58;;;;;;;10.50;5.23;;;;;;;;;;5081961;28;20031;-68
2022/03/13 10:10:26;;;;;;;9.87;5.07;;;;;;;;;;5081328;28;20028;-68
2022/03/13 10:12:52;;;;;;;10.80;4.47;;;;;;;;;;5081336;28;20056;-68
2022/03/13 10:15:17;;;;;;;10.13;4.60;;;;;;;;;;5080457;28;20036;-68
2022/03/13 10:17:42;;;;;;;10.07;5.17;;;;;;;;;;5080440;28;20060;-68
2022/03/13 10:20:39;;;;;;;10.53;4.80;;;;;;;;;;5094958;28;20499;-68
2022/03/13 10:23:10;;;;;;;12.47;4.90;;;;;;;;;;4968963;28;20038;-68
2022/03/13 10:25:36;;;;;;;8.30;4.03;;;;;;;;;;4966706;28;20081;-68
2022/03/13 10:28:10;;;;;;;10.17;4.73;;;;;;;;;;4967865;28;20035;-68
2022/03/13 10:30:36;;;;;;;9.73;4.80;;;;;;;;;;4973798;28;20023;-68
2022/03/13 10:33:02;;;;;;;11.23;5.13;;;;;;;;;;4964599;28;20113;-68
2022/03/13 10:35:28;;;;;;;10.13;4.73;;;;;;;;;;4971673;28;20030;-68
2022/03/13 10:37:55;;;;;;;11.47;5.23;;;;;;;;;;4961087;28;20027;-69
2022/03/13 10:40:24;;;;;;;10.67;5.07;;;;;;;;;;4976883;28;20027;-68
2022/03/13 10:42:51;;;;;;;9.60;4.40;;;;;;;;;;4973461;28;20026;-68
2022/03/13 10:45:36;;;;;;;9.20;4.90;;;;;;;;;;4968789;28;20447;-68
2022/03/13 10:48:27;;;;;;;9.57;4.80;;;;;;;;;;4998513;28;20844;-68
2022/03/13 10:50:53;;;;;;;8.90;4.32;;;;;;;;;;4979287;28;20685;-68
2022/03/13 10:53:19;;;;;;;9.47;4.40;;;;;;;;;;4974502;28;20122;-68
2022/03/13 10:55:58;;;;;;;9.10;4.50;;;;;;;;;;4975812;28;20035;-68
2022/03/13 10:58:28;;;;;;;9.83;4.40;;;;;;;;;;4984704;28;20205;-68
2022/03/13 11:01:05;;;;;;;10.67;5.53;;;;;;;;;;5083582;28;20602;-68
2022/03/13 11:03:32;;;;;;;12.30;4.77;;;;;;;;;;5083616;28;20063;-68
2022/03/13 11:05:57;;;;;;;9.93;4.47;;;;;;;;;;5083357;28;20019;-68
2022/03/13 11:08:22;;;;;;;11.80;4.60;;;;;;;;;;5083332;28;20672;-68
2022/03/13 11:10:48;;;;;;;8.93;4.17;;;;;;;;;;5070198;28;20315;-68
2022/03/13 11:13:14;;;;;;;8.43;4.17;;;;;;;;;;5083089;28;20039;-68
2022/03/13 11:15:42;;;;;;;10.10;4.83;;;;;;;;;;5083055;28;20051;-68
2022/03/13 11:18:09;;;;;;;11.80;5.00;;;;;;;;;;5083420;28;20017;-68
2022/03/13 11:20:35;;;;;;;11.30;4.83;;;;;;;;;;5082367;28;20031;-68
2022/03/13 11:23:00;;;;;;;8.33;4.73;;;;;;;;;;5081805;28;20427;-68
2022/03/13 11:25:26;;;;;;;10.53;4.27;;;;;;;;;;5080918;28;20458;-68
2022/03/13 11:27:52;;;;;;;8.70;4.63;;;;;;;;;;5080569;28;20036;-68
2022/03/13 11:30:29;;;;;;;11.07;4.80;;;;;;;;;;5078610;28;20028;-68
2022/03/13 11:32:55;;;;;;;7.93;3.60;;;;;;;;;;5083699;28;20035;-68
2022/03/13 11:35:22;;;;;;;9.30;4.90;;;;;;;;;;5082818;28;20499;-68
2022/03/13 11:37:47;;;;;;;11.20;4.60;;;;;;;;;;5085869;28;20016;-68
2022/03/13 11:40:13;;;;;;;10.70;5.23;;;;;;;;;;5085910;28;20020;-68
2022/03/13 11:43:04;;;;;;;12.47;5.10;;;;;;;;;;5087594;28;20023;-69
2022/03/13 11:45:30;;;;;;;9.33;4.80;;;;;;;;;;5086522;28;20012;-68
2022/03/13 11:47:56;;;;;;;8.47;4.67;;;;;;;;;;5086685;28;20047;-68
2022/03/13 11:50:40;;;;;;;9.77;4.20;;;;;;;;;;5085922;28;20725;-68
2022/03/13 11:53:17;;;;;;;8.43;4.47;;;;;;;;;;5085971;28;20040;-68
2022/03/13 11:56:06;;;;;;;9.60;4.20;;;;;;;;;;5085963;28;20380;-67
2022/03/13 11:58:42;;;;;;;9.83;5.20;;;;;;;;;;5084589;28;20559;-67
2022/03/13 12:01:12;;;;;;;9.40;4.80;;;;;;;;;;5085440;28;20027;-66
2022/03/13 12:03:37;;;;;;;11.47;5.60;;;;;;;;;;5085129;28;20063;-67
2022/03/13 12:06:04;;;;;;;10.07;4.67;;;;;;;;;;5065844;28;20048;-67
2022/03/13 12:08:48;;;;;;;11.17;4.93;;;;;;;;;;5064974;28;20213;-67
2022/03/13 12:11:35;;;;;;;10.07;5.37;;;;;;;;;;5066189;28;20033;-67
2022/03/13 12:14:00;;;;;;;10.73;5.20;;;;;;;;;;5063612;28;20021;-67
2022/03/13 12:16:25;;;;;;;8.57;4.50;;;;;;;;;;5064528;28;20656;-67
2022/03/13 12:18:58;;;;;;;11.83;5.27;;;;;;;;;;5065579;28;20012;-67
2022/03/13 12:21:23;;;;;;;12.03;5.20;;;;;;;;;;5065645;28;20127;-67
2022/03/13 12:23:48;;;;;;;9.67;4.77;;;;;;;;;;5068020;28;20024;-67
2022/03/13 12:26:15;;;;;;;9.60;4.87;;;;;;;;;;5085798;28;20028;-67
2022/03/13 12:28:40;;;;;;;11.37;4.77;;;;;;;;;;5083886;28;20016;-67
2022/03/13 12:31:06;;;;;;;10.77;5.47;;;;;;;;;;5065488;28;20031;-66
2022/03/13 12:33:31;;;;;;;10.07;5.03;;;;;;;;;;5065681;28;20016;-67
2022/03/13 12:35:57;;;;;;;9.30;4.77;;;;;;;;;;5065597;28;20073;-67
2022/03/13 12:38:33;;;;;;;12.23;5.20;;;;;;;;;;5064778;28;20024;-67
2022/03/13 12:40:59;;;;;;;10.43;5.30;;;;;;;;;;5065397;28;20040;-66
2022/03/13 12:43:45;;;;;;;11.03;4.97;;;;;;;;;;5065341;28;20528;-67
2022/03/13 12:46:12;;;;;;;12.05;5.53;;;;;;;;;;5045165;28;20036;-67
2022/03/13 12:48:38;;;;;;;10.20;5.05;;;;;;;;;;5047854;28;20032;-66
2022/03/13 12:51:04;;;;;;;13.23;5.90;;;;;;;;;;5065274;28;20024;-66
2022/03/13 12:53:30;;;;;;;11.80;5.65;;;;;;;;;;5065711;28;20017;-67
2022/03/13 12:55:55;;;;;;;10.88;5.53;;;;;;;;;;5085514;28;20020;-66
2022/03/13 12:58:20;;;;;;;8.55;4.55;;;;;;;;;;5084511;28;20103;-66
2022/03/13 13:00:46;;;;;;;8.40;4.50;;;;;;;;;;5084564;28;20020;-66
2022/03/13 13:03:12;;;;;;;9.43;4.88;;;;;;;;;;5084717;28;20044;-66
2022/03/13 13:05:38;;;;;;;9.93;4.78;;;;;;;;;;5076943;28;20354;-66
2022/03/13 13:08:03;;;;;;;12.70;5.00;;;;;;;;;;5064442;28;20027;-66
2022/03/13 13:10:28;;;;;;;11.57;5.03;;;;;;;;;;5064443;28;20147;-66
2022/03/13 13:12:54;;;;;;;10.05;4.88;;;;;;;;;;5064440;28;20016;-66
2022/03/13 13:15:21;;;;;;;9.27;5.00;;;;;;;;;;5063340;28;20055;-66
2022/03/13 13:17:48;;;;;;;11.70;5.25;;;;;;;;;;5064215;28;20036;-66
2022/03/13 13:20:25;;;;;;;9.57;4.85;;;;;;;;;;5079696;28;20035;-66
2022/03/13 13:23:09;;;;;;;10.40;5.38;;;;;;;;;;5085878;28;20118;-66
2022/03/13 13:25:35;;;;;;;10.20;4.78;;;;;;;;;;5085213;28;20031;-66
2022/03/13 13:28:02;;;;;;;10.35;4.85;;;;;;;;;;5084991;28;20028;-66
2022/03/13 13:30:28;;;;;;;12.50;5.45;;;;;;;;;;5084813;28;20622;-66
2022/03/13 13:33:03;;;;;;;9.95;5.38;;;;;;;;;;5085135;28;20027;-66
2022/03/13 13:35:32;;;;;;;10.77;5.38;;;;;;;;;;5067419;28;20516;-66
2022/03/13 13:38:00;;;;;;;11.95;5.72;;;;;;;;;;5064221;28;20021;-66
2022/03/13 13:40:26;;;;;;;9.43;4.70;;;;;;;;;;5064724;28;20031;-67
2022/03/13 13:42:55;;;;;;;11.00;5.35;;;;;;;;;;5064017;28;20016;-68
2022/03/13 13:45:20;;;;;;;10.93;5.22;;;;;;;;;;5063941;28;20051;-68
2022/03/13 13:47:45;;;;;;;9.48;5.05;;;;;;;;;;5050347;28;20409;-66
2022/03/13 13:50:14;;;;;;;12.70;5.50;;;;;;;;;;5058203;28;20078;-68
2022/03/13 13:52:39;;;;;;;9.57;4.63;;;;;;;;;;5063244;28;20025;-68
2022/03/13 13:55:26;;;;;;;13.65;5.45;;;;;;;;;;5077434;28;20030;-68
2022/03/13 13:58:10;;;;;;;10.50;5.20;;;;;;;;;;5084246;28;20032;-66
2022/03/13 14:00:39;;;;;;;11.52;5.13;;;;;;;;;;5065119;28;20103;-66
2022/03/13 14:03:04;;;;;;;10.20;5.30;;;;;;;;;;5066489;28;20441;-66
2022/03/13 14:05:31;;;;;;;11.27;5.70;;;;;;;;;;5083594;28;20149;-68
2022/03/13 14:07:57;;;;;;;9.68;5.05;;;;;;;;;;5083783;28;20039;-68
2022/03/13 14:10:22;;;;;;;9.25;4.15;;;;;;;;;;5082884;28;20020;-66
2022/03/13 14:12:49;;;;;;;10.60;4.95;;;;;;;;;;5082911;28;20050;-68
2022/03/13 14:15:14;;;;;;;14.50;5.18;;;;;;;;;;5083175;28;20054;-68
2022/03/13 14:17:40;;;;;;;11.82;5.72;;;;;;;;;;5082939;28;20024;-68
2022/03/13 14:20:06;;;;;;;9.40;5.00;;;;;;;;;;5082857;28;20591;-68
2022/03/13 14:22:33;;;;;;;10.13;4.75;;;;;;;;;;5082615;28;20460;-69
2022/03/13 14:24:58;;;;;;;8.45;4.00;;;;;;;;;;5079184;28;20024;-68
2022/03/13 14:27:23;;;;;;;10.30;5.20;;;;;;;;;;5083167;28;20035;-68
2022/03/13 14:29:49;;;;;;;11.32;5.43;;;;;;;;;;5083575;28;20107;-68
2022/03/13 14:32:14;;;;;;;11.40;4.97;;;;;;;;;;5083633;28;20024;-68